sensor_id;sensor_type;location;lat;lon;timestamp;pressure;altitude;pressure_sealevel;temperature;humidity
14204;BME280;7185;51.854;6.622;2023-03-29T00:01:06;101438.09;;;7.88;81.90
14204;BME280;7185;51.854;6.622;2023-03-29T00:03:39;101432.81;;;7.78;82.46
14204;BME280;7185;51.854;6.622;2023-03-29T00:06:14;101433.69;;;7.82;82.22
14204;BME280;7185;51.854;6.622;2023-03-29T00:08:51;101427.63;;;7.83;82.92
14204;BME280;7185;51.854;6.622;2023-03-29T00:11:24;101427.59;;;7.80;82.78
14204;BME280;7185;51.854;6.622;2023-03-29T00:13:56;101417.03;;;7.60;83.08
14204;BME280;7185;51.854;6.622;2023-03-29T00:16:28;101413.66;;;7.81;83.18
14204;BME280;7185;51.854;6.622;2023-03-29T00:19:00;101418.97;;;7.98;82.28
14204;BME280;7185;51.854;6.622;2023-03-29T00:21:33;101418.22;;;8.13;81.14
14204;BME280;7185;51.854;6.622;2023-03-29T00:24:05;101418.13;;;7.97;81.97
14204;BME280;7185;51.854;6.622;2023-03-29T00:26:36;101414.69;;;8.05;81.48
14204;BME280;7185;51.854;6.622;2023-03-29T00:29:08;101410.22;;;7.90;81.61
14204;BME280;7185;51.854;6.622;2023-03-29T00:31:40;101402.41;;;7.87;81.78
14204;BME280;7185;51.854;6.622;2023-03-29T00:34:11;101398.97;;;7.92;81.29
14204;BME280;7185;51.854;6.622;2023-03-29T00:36:47;101403.31;;;7.98;81.06
14204;BME280;7185;51.854;6.622;2023-03-29T00:39:20;101399.97;;;8.25;79.91
14204;BME280;7185;51.854;6.622;2023-03-29T00:41:52;101395.69;;;8.38;79.25
14204;BME280;7185;51.854;6.622;2023-03-29T00:44:59;101400.88;;;8.34;79.68
14204;BME280;7185;51.854;6.622;2023-03-29T00:47:35;101393.88;;;8.26;80.14
14204;BME280;7185;51.854;6.622;2023-03-29T00:50:12;101400.75;;;8.00;80.76
14204;BME280;7185;51.854;6.622;2023-03-29T00:52:50;101393.88;;;8.26;80.34
14204;BME280;7185;51.854;6.622;2023-03-29T00:55:24;101393.81;;;8.11;80.63
14204;BME280;7185;51.854;6.622;2023-03-29T00:57:57;101385.19;;;8.29;80.36
14204;BME280;7185;51.854;6.622;2023-03-29T01:00:34;101385.13;;;8.21;80.34
14204;BME280;7185;51.854;6.622;2023-03-29T01:03:09;101376.44;;;8.22;79.81
14204;BME280;7185;51.854;6.622;2023-03-29T01:05:44;101372.13;;;8.29;79.65
14204;BME280;7185;51.854;6.622;2023-03-29T01:08:22;101364.28;;;8.27;79.82
14204;BME280;7185;51.854;6.622;2023-03-29T01:11:01;101361.63;;;8.18;80.50
14204;BME280;7185;51.854;6.622;2023-03-29T01:13:36;101360.78;;;8.27;80.06
14204;BME280;7185;51.854;6.622;2023-03-29T01:16:18;101362.53;;;8.29;79.93
14204;BME280;7185;51.854;6.622;2023-03-29T01:18:51;101354.63;;;8.11;80.35
14204;BME280;7185;51.854;6.622;2023-03-29T01:21:26;101345.94;;;8.15;81.18
14204;BME280;7185;51.854;6.622;2023-03-29T01:24:24;101351.25;;;8.34;79.66
14204;BME280;7185;51.854;6.622;2023-03-29T01:27:02;101352.19;;;8.48;78.81
14204;BME280;7185;51.854;6.622;2023-03-29T01:29:41;101350.38;;;8.42;79.69
14204;BME280;7185;51.854;6.622;2023-03-29T01:32:18;101340.78;;;8.35;80.01
14204;BME280;7185;51.854;6.622;2023-03-29T01:34:56;101331.16;;;8.23;80.17
14204;BME280;7185;51.854;6.622;2023-03-29T01:37:33;101312.91;;;8.31;79.71
14204;BME280;7185;51.854;6.622;2023-03-29T01:40:07;101326.00;;;8.45;79.71
14204;BME280;7185;51.854;6.622;2023-03-29T01:42:45;101331.28;;;8.53;79.02
14204;BME280;7185;51.854;6.622;2023-03-29T01:45:22;101311.16;;;8.39;79.50
14204;BME280;7185;51.854;6.622;2023-03-29T01:47:59;101306.84;;;8.38;79.33
14204;BME280;7185;51.854;6.622;2023-03-29T01:50:37;101306.91;;;8.63;78.37
14204;BME280;7185;51.854;6.622;2023-03-29T01:53:15;101306.88;;;8.58;78.49
14204;BME280;7185;51.854;6.622;2023-03-29T01:55:50;101305.13;;;8.51;78.83
14204;BME280;7185;51.854;6.622;2023-03-29T01:58:26;101306.03;;;8.59;78.69
14204;BME280;7185;51.854;6.622;2023-03-29T02:01:02;101318.22;;;8.57;79.12
14204;BME280;7185;51.854;6.622;2023-03-29T02:03:43;101310.41;;;8.70;78.28
14204;BME280;7185;51.854;6.622;2023-03-29T02:06:21;101308.59;;;8.50;79.19
14204;BME280;7185;51.854;6.622;2023-03-29T02:08:55;101305.13;;;8.64;78.07
14204;BME280;7185;51.854;6.622;2023-03-29T02:11:27;101299.94;;;8.60;77.79
14204;BME280;7185;51.854;6.622;2023-03-29T02:13:59;101303.41;;;8.59;78.58
14204;BME280;7185;51.854;6.622;2023-03-29T02:16:37;101308.63;;;8.66;78.12
14204;BME280;7185;51.854;6.622;2023-03-29T02:19:09;101308.63;;;8.78;77.61
14204;BME280;7185;51.854;6.622;2023-03-29T02:21:44;101298.19;;;8.75;78.07
14204;BME280;7185;51.854;6.622;2023-03-29T02:24:18;101292.06;;;8.68;78.01
14204;BME280;7185;51.854;6.622;2023-03-29T02:26:51;101295.59;;;8.80;77.47
14204;BME280;7185;51.854;6.622;2023-03-29T02:29:23;101285.13;;;8.58;78.06
14204;BME280;7185;51.854;6.622;2023-03-29T02:32:00;101288.59;;;8.58;78.37
14204;BME280;7185;51.854;6.622;2023-03-29T02:34:37;101275.53;;;8.88;77.54
14204;BME280;7185;51.854;6.622;2023-03-29T02:37:13;101281.63;;;8.60;77.76
14204;BME280;7185;51.854;6.622;2023-03-29T02:39:47;101280.75;;;8.58;78.02
14204;BME280;7185;51.854;6.622;2023-03-29T02:42:22;101272.03;;;8.64;78.21
14204;BME280;7185;51.854;6.622;2023-03-29T02:44:56;101275.53;;;8.71;77.30
14204;BME280;7185;51.854;6.622;2023-03-29T02:47:37;101279.88;;;8.61;78.13
14204;BME280;7185;51.854;6.622;2023-03-29T02:50:11;101275.53;;;8.80;77.00
14204;BME280;7185;51.854;6.622;2023-03-29T02:52:50;101264.22;;;8.69;77.34
14204;BME280;7185;51.854;6.622;2023-03-29T02:55:24;101264.19;;;8.81;76.83
14204;BME280;7185;51.854;6.622;2023-03-29T02:58:01;101263.31;;;8.73;77.00
14204;BME280;7185;51.854;6.622;2023-03-29T03:00:40;101269.44;;;8.73;76.53
14204;BME280;7185;51.854;6.622;2023-03-29T03:03:15;101272.94;;;8.88;75.87
14204;BME280;7185;51.854;6.622;2023-03-29T03:05:46;101265.06;;;8.92;75.67
14204;BME280;7185;51.854;6.622;2023-03-29T03:08:19;101261.59;;;8.87;76.02
14204;BME280;7185;51.854;6.622;2023-03-29T03:10:50;101265.06;;;8.86;76.48
14204;BME280;7185;51.854;6.622;2023-03-29T03:13:23;101260.72;;;8.88;75.73
14204;BME280;7185;51.854;6.622;2023-03-29T03:15:55;101266.81;;;9.03;76.24
14204;BME280;7185;51.854;6.622;2023-03-29T03:18:27;101263.31;;;9.10;75.54
14204;BME280;7185;51.854;6.622;2023-03-29T03:20:59;101268.53;;;9.10;76.02
14204;BME280;7185;51.854;6.622;2023-03-29T03:23:31;101258.06;;;9.07;76.25
14204;BME280;7185;51.854;6.622;2023-03-29T03:26:04;101258.06;;;9.10;75.94
14204;BME280;7185;51.854;6.622;2023-03-29T03:28:35;101254.53;;;9.25;75.34
14204;BME280;7185;51.854;6.622;2023-03-29T03:31:08;101251.06;;;9.21;75.77
14204;BME280;7185;51.854;6.622;2023-03-29T03:33:41;101253.69;;;9.20;75.92
14204;BME280;7185;51.854;6.622;2023-03-29T03:36:19;101252.78;;;9.33;75.66
14204;BME280;7185;51.854;6.622;2023-03-29T03:38:55;101253.72;;;9.09;76.55
14204;BME280;7185;51.854;6.622;2023-03-29T03:41:27;101252.84;;;9.04;77.22
14204;BME280;7185;51.854;6.622;2023-03-29T03:43:59;101245.03;;;8.91;77.64
14204;BME280;7185;51.854;6.622;2023-03-29T03:46:31;101236.31;;;8.88;77.81
14204;BME280;7185;51.854;6.622;2023-03-29T03:49:04;101236.25;;;9.17;77.74
14204;BME280;7185;51.854;6.622;2023-03-29T03:51:35;101238.88;;;9.23;77.26
14204;BME280;7185;51.854;6.622;2023-03-29T03:54:07;101242.38;;;9.16;77.95
14204;BME280;7185;51.854;6.622;2023-03-29T03:56:39;101236.25;;;9.19;78.27
14204;BME280;7185;51.854;6.622;2023-03-29T03:59:10;101231.88;;;9.25;78.35
14204;BME280;7185;51.854;6.622;2023-03-29T04:01:42;101234.50;;;9.25;78.59
14204;BME280;7185;51.854;6.622;2023-03-29T04:04:15;101236.28;;;9.03;79.66
14204;BME280;7185;51.854;6.622;2023-03-29T04:06:48;101238.00;;;9.17;80.21
14204;BME280;7185;51.854;6.622;2023-03-29T04:09:20;101237.13;;;9.13;80.48
14204;BME280;7185;51.854;6.622;2023-03-29T04:11:53;101238.88;;;9.08;80.76
14204;BME280;7185;51.854;6.622;2023-03-29T04:14:25;101231.94;;;8.95;81.67
14204;BME280;7185;51.854;6.622;2023-03-29T04:16:57;101219.72;;;9.12;81.74
14204;BME280;7185;51.854;6.622;2023-03-29T04:19:30;101224.06;;;8.96;82.14
14204;BME280;7185;51.854;6.622;2023-03-29T04:22:01;101224.94;;;9.00;82.37
14204;BME280;7185;51.854;6.622;2023-03-29T04:24:33;101224.09;;;9.08;82.46
14204;BME280;7185;51.854;6.622;2023-03-29T04:27:05;101219.69;;;9.06;82.57
14204;BME280;7185;51.854;6.622;2023-03-29T04:29:36;101218.00;;;8.85;83.37
14204;BME280;7185;51.854;6.622;2023-03-29T04:32:08;101212.75;;;8.91;83.99
14204;BME280;7185;51.854;6.622;2023-03-29T04:34:41;101211.91;;;8.90;84.13
14204;BME280;7185;51.854;6.622;2023-03-29T04:37:12;101204.06;;;8.75;84.86
14204;BME280;7185;51.854;6.622;2023-03-29T04:39:45;101203.22;;;8.81;84.48
14204;BME280;7185;51.854;6.622;2023-03-29T04:42:17;101201.44;;;8.78;84.39
14204;BME280;7185;51.854;6.622;2023-03-29T04:44:49;101204.06;;;8.66;85.29
14204;BME280;7185;51.854;6.622;2023-03-29T04:47:20;101203.19;;;8.73;85.23
14204;BME280;7185;51.854;6.622;2023-03-29T04:49:53;101204.91;;;8.26;86.57
14204;BME280;7185;51.854;6.622;2023-03-29T04:52:25;101200.59;;;8.70;85.36
14204;BME280;7185;51.854;6.622;2023-03-29T04:54:57;101205.81;;;8.64;85.65
14204;BME280;7185;51.854;6.622;2023-03-29T04:57:28;101204.06;;;8.72;85.39
14204;BME280;7185;51.854;6.622;2023-03-29T05:00:00;101202.34;;;8.68;85.17
14204;BME280;7185;51.854;6.622;2023-03-29T05:02:37;101193.63;;;8.59;85.56
14204;BME280;7185;51.854;6.622;2023-03-29T05:05:10;101193.59;;;8.81;84.29
14204;BME280;7185;51.854;6.622;2023-03-29T05:07:42;101200.59;;;8.73;84.37
14204;BME280;7185;51.854;6.622;2023-03-29T05:10:14;101197.13;;;8.61;85.24
14204;BME280;7185;51.854;6.622;2023-03-29T05:12:46;101195.38;;;8.54;85.20
14204;BME280;7185;51.854;6.622;2023-03-29T05:15:23;101191.88;;;8.58;84.90
14204;BME280;7185;51.854;6.622;2023-03-29T05:17:54;101196.25;;;8.58;85.58
14204;BME280;7185;51.854;6.622;2023-03-29T05:20:27;101206.69;;;8.75;84.83
14204;BME280;7185;51.854;6.622;2023-03-29T05:23:00;101197.97;;;8.60;85.33
14204;BME280;7185;51.854;6.622;2023-03-29T05:25:32;101203.19;;;8.82;85.16
14204;BME280;7185;51.854;6.622;2023-03-29T05:28:03;101187.47;;;8.85;84.80
14204;BME280;7185;51.854;6.622;2023-03-29T05:30:35;101187.47;;;8.96;84.47
14204;BME280;7185;51.854;6.622;2023-03-29T05:33:07;101183.06;;;9.06;83.90
14204;BME280;7185;51.854;6.622;2023-03-29T05:35:41;101179.66;;;8.88;84.73
14204;BME280;7185;51.854;6.622;2023-03-29T05:38:12;101177.91;;;8.97;84.33
14204;BME280;7185;51.854;6.622;2023-03-29T05:40:45;101180.41;;;9.29;83.35
14204;BME280;7185;51.854;6.622;2023-03-29T05:43:16;101169.13;;;9.19;83.54
14204;BME280;7185;51.854;6.622;2023-03-29T05:45:48;101173.44;;;9.28;83.40
14204;BME280;7185;51.854;6.622;2023-03-29T05:48:20;101174.22;;;9.41;82.76
14204;BME280;7185;51.854;6.622;2023-03-29T05:50:54;101186.41;;;9.51;82.32
14204;BME280;7185;51.854;6.622;2023-03-29T05:53:27;101193.44;;;9.43;82.44
14204;BME280;7185;51.854;6.622;2023-03-29T05:55:58;101196.97;;;9.33;83.17
14204;BME280;7185;51.854;6.622;2023-03-29T05:58:33;101183.94;;;9.16;83.58
14204;BME280;7185;51.854;6.622;2023-03-29T06:01:10;101189.13;;;9.28;83.32
14204;BME280;7185;51.854;6.622;2023-03-29T06:03:42;101196.16;;;9.15;84.28
14204;BME280;7185;51.854;6.622;2023-03-29T06:06:16;101198.75;;;9.18;83.78
14204;BME280;7185;51.854;6.622;2023-03-29T06:08:48;101196.06;;;9.40;83.21
14204;BME280;7185;51.854;6.622;2023-03-29T06:11:20;101193.47;;;9.37;83.64
14204;BME280;7185;51.854;6.622;2023-03-29T06:13:53;101196.13;;;9.29;84.48
14204;BME280;7185;51.854;6.622;2023-03-29T06:16:25;101192.53;;;9.46;83.49
14204;BME280;7185;51.854;6.622;2023-03-29T06:18:56;101191.69;;;9.42;83.70
14204;BME280;7185;51.854;6.622;2023-03-29T06:21:29;101197.78;;;9.49;83.58
14204;BME280;7185;51.854;6.622;2023-03-29T06:24:02;101187.31;;;9.49;83.13
14204;BME280;7185;51.854;6.622;2023-03-29T06:26:34;101192.56;;;9.47;82.97
14204;BME280;7185;51.854;6.622;2023-03-29T06:29:06;101187.25;;;9.64;82.51
14204;BME280;7185;51.854;6.622;2023-03-29T06:31:37;101188.19;;;9.51;82.80
14204;BME280;7185;51.854;6.622;2023-03-29T06:34:10;101192.53;;;9.46;83.08
14204;BME280;7185;51.854;6.622;2023-03-29T06:36:44;101195.97;;;9.63;82.56
14204;BME280;7185;51.854;6.622;2023-03-29T06:39:16;101201.28;;;9.45;83.53
14204;BME280;7185;51.854;6.622;2023-03-29T06:41:47;101192.47;;;9.63;82.48
14204;BME280;7185;51.854;6.622;2023-03-29T06:44:19;101196.91;;;9.48;83.42
14204;BME280;7185;51.854;6.622;2023-03-29T06:46:50;101188.09;;;9.65;83.69
14204;BME280;7185;51.854;6.622;2023-03-29T06:49:22;101203.88;;;9.52;83.73
14204;BME280;7185;51.854;6.622;2023-03-29T06:51:55;101202.94;;;9.63;83.40
14204;BME280;7185;51.854;6.622;2023-03-29T06:54:27;101203.94;;;9.40;84.13
14204;BME280;7185;51.854;6.622;2023-03-29T06:56:58;101194.13;;;9.81;83.01
14204;BME280;7185;51.854;6.622;2023-03-29T06:59:30;101197.59;;;9.83;82.71
14204;BME280;7185;51.854;6.622;2023-03-29T07:02:02;101203.72;;;9.83;82.68
14204;BME280;7185;51.854;6.622;2023-03-29T07:04:34;101201.09;;;9.82;83.17
14204;BME280;7185;51.854;6.622;2023-03-29T07:07:07;101186.22;;;9.90;82.53
14204;BME280;7185;51.854;6.622;2023-03-29T07:09:48;101201.09;;;9.89;83.22
14204;BME280;7185;51.854;6.622;2023-03-29T07:12:24;101205.38;;;10.00;82.30
14204;BME280;7185;51.854;6.622;2023-03-29T07:14:56;101212.19;;;10.24;81.50
14204;BME280;7185;51.854;6.622;2023-03-29T07:17:27;101207.94;;;10.06;81.95
14204;BME280;7185;51.854;6.622;2023-03-29T07:19:59;101217.75;;;9.70;83.19
14204;BME280;7185;51.854;6.622;2023-03-29T07:22:32;101225.53;;;9.84;82.63
14204;BME280;7185;51.854;6.622;2023-03-29T07:25:05;101217.63;;;9.92;82.36
14204;BME280;7185;51.854;6.622;2023-03-29T07:27:40;101225.41;;;10.07;82.31
14204;BME280;7185;51.854;6.622;2023-03-29T07:30:14;101213.19;;;10.06;82.22
14204;BME280;7185;51.854;6.622;2023-03-29T07:32:46;101212.34;;;10.01;81.73
14204;BME280;7185;51.854;6.622;2023-03-29T07:35:17;101222.66;;;10.29;81.50
14204;BME280;7185;51.854;6.622;2023-03-29T07:37:51;101222.66;;;10.29;80.47
14204;BME280;7185;51.854;6.622;2023-03-29T07:40:24;101227.88;;;10.29;80.55
14204;BME280;7185;51.854;6.622;2023-03-29T07:42:56;101220.16;;;10.09;81.09
14204;BME280;7185;51.854;6.622;2023-03-29T07:45:28;101226.19;;;10.18;80.96
14204;BME280;7185;51.854;6.622;2023-03-29T07:48:00;101220.84;;;10.43;80.00
14204;BME280;7185;51.854;6.622;2023-03-29T07:50:31;101226.06;;;10.45;80.07
14204;BME280;7185;51.854;6.622;2023-03-29T07:53:04;101210.09;;;10.74;79.56
14204;BME280;7185;51.854;6.622;2023-03-29T07:55:36;101213.59;;;10.73;78.95
14204;BME280;7185;51.854;6.622;2023-03-29T07:58:15;101201.41;;;10.67;77.79
14204;BME280;7185;51.854;6.622;2023-03-29T08:00:47;101210.00;;;10.82;77.99
14204;BME280;7185;51.854;6.622;2023-03-29T08:03:19;101204.53;;;11.05;76.90
14204;BME280;7185;51.854;6.622;2023-03-29T08:05:51;101216.22;;;10.72;77.51
14204;BME280;7185;51.854;6.622;2023-03-29T08:08:25;101209.94;;;10.88;77.09
14204;BME280;7185;51.854;6.622;2023-03-29T08:10:57;101202.00;;;10.97;77.68
14204;BME280;7185;51.854;6.622;2023-03-29T08:13:28;101210.53;;;11.15;76.44
14204;BME280;7185;51.854;6.622;2023-03-29T08:16:00;101212.94;;;11.35;75.54
14204;BME280;7185;51.854;6.622;2023-03-29T08:18:32;101211.53;;;11.06;75.81
14204;BME280;7185;51.854;6.622;2023-03-29T08:21:04;101222.03;;;11.06;76.75
14204;BME280;7185;51.854;6.622;2023-03-29T08:23:37;101215.84;;;11.12;76.35
14204;BME280;7185;51.854;6.622;2023-03-29T08:26:09;101207.97;;;11.10;77.86
14204;BME280;7185;51.854;6.622;2023-03-29T08:28:41;101207.69;;;11.38;77.93
14204;BME280;7185;51.854;6.622;2023-03-29T08:31:13;101207.84;;;11.23;78.53
14204;BME280;7185;51.854;6.622;2023-03-29T08:33:45;101211.13;;;11.43;78.11
14204;BME280;7185;51.854;6.622;2023-03-29T08:36:17;101207.81;;;11.26;78.53
14204;BME280;7185;51.854;6.622;2023-03-29T08:38:50;101213.19;;;11.16;79.20
14204;BME280;7185;51.854;6.622;2023-03-29T08:41:33;101212.81;;;11.47;78.20
14204;BME280;7185;51.854;6.622;2023-03-29T08:44:17;101206.06;;;11.26;78.30
14204;BME280;7185;51.854;6.622;2023-03-29T08:46:55;101211.81;;;11.56;77.50
14204;BME280;7185;51.854;6.622;2023-03-29T08:49:30;101197.84;;;11.53;78.05
14204;BME280;7185;51.854;6.622;2023-03-29T08:52:04;101200.47;;;11.53;77.96
14204;BME280;7185;51.854;6.622;2023-03-29T08:54:41;101201.00;;;11.81;77.25
14204;BME280;7185;51.854;6.622;2023-03-29T08:57:17;101188.25;;;11.52;76.78
14204;BME280;7185;51.854;6.622;2023-03-29T08:59:53;101198.53;;;11.67;76.94
14204;BME280;7185;51.854;6.622;2023-03-29T09:02:28;101197.03;;;11.51;76.90
14204;BME280;7185;51.854;6.622;2023-03-29T09:05:12;101196.84;;;11.63;76.77
14204;BME280;7185;51.854;6.622;2023-03-29T09:07:47;101197.28;;;11.96;76.13
14204;BME280;7185;51.854;6.622;2023-03-29T09:10:27;101198.72;;;11.55;75.65
14204;BME280;7185;51.854;6.622;2023-03-29T09:13:13;101198.13;;;11.32;76.54
14204;BME280;7185;51.854;6.622;2023-03-29T09:15:53;101192.53;;;11.57;76.43
14204;BME280;7185;51.854;6.622;2023-03-29T09:18:35;101195.72;;;11.83;76.66
14204;BME280;7185;51.854;6.622;2023-03-29T09:21:16;101198.22;;;11.92;77.00
14204;BME280;7185;51.854;6.622;2023-03-29T09:24:07;101202.22;;;11.55;78.08
14204;BME280;7185;51.854;6.622;2023-03-29T09:26:46;101202.09;;;11.66;78.03
14204;BME280;7185;51.854;6.622;2023-03-29T09:29:31;101201.84;;;11.83;78.09
14204;BME280;7185;51.854;6.622;2023-03-29T09:32:14;101198.97;;;12.02;77.31
14204;BME280;7185;51.854;6.622;2023-03-29T09:34:53;101196.44;;;11.94;77.69
14204;BME280;7185;51.854;6.622;2023-03-29T09:37:31;101202.38;;;12.10;77.54
14204;BME280;7185;51.854;6.622;2023-03-29T09:40:09;101201.31;;;12.22;77.60
14204;BME280;7185;51.854;6.622;2023-03-29T09:42:44;101197.25;;;12.57;77.63
14204;BME280;7185;51.854;6.622;2023-03-29T09:45:15;101205.84;;;12.65;77.69
14204;BME280;7185;51.854;6.622;2023-03-29T09:47:51;101198.06;;;12.59;77.36
14204;BME280;7185;51.854;6.622;2023-03-29T09:50:28;101200.25;;;12.35;78.17
14204;BME280;7185;51.854;6.622;2023-03-29T09:53:01;101200.66;;;12.62;78.72
14204;BME280;7185;51.854;6.622;2023-03-29T09:55:34;101188.19;;;12.73;77.91
14204;BME280;7185;51.854;6.622;2023-03-29T09:58:13;101196.03;;;12.77;76.24
14204;BME280;7185;51.854;6.622;2023-03-29T10:00:46;101199.84;;;13.07;76.00
14204;BME280;7185;51.854;6.622;2023-03-29T10:03:19;101198.69;;;12.73;76.20
14204;BME280;7185;51.854;6.622;2023-03-29T10:05:53;101203.03;;;12.76;76.50
14204;BME280;7185;51.854;6.622;2023-03-29T10:08:28;101201.66;;;12.55;77.35
14204;BME280;7185;51.854;6.622;2023-03-29T10:11:02;101199.94;;;12.54;78.14
14204;BME280;7185;51.854;6.622;2023-03-29T10:13:46;101198.06;;;12.61;78.70
14204;BME280;7185;51.854;6.622;2023-03-29T10:16:21;101208.31;;;12.76;77.70
14204;BME280;7185;51.854;6.622;2023-03-29T10:18:53;101201.06;;;12.89;77.18
14204;BME280;7185;51.854;6.622;2023-03-29T10:21:28;101193.91;;;12.97;77.87
14204;BME280;7185;51.854;6.622;2023-03-29T10:23:59;101191.63;;;12.79;78.72
14204;BME280;7185;51.854;6.622;2023-03-29T10:26:31;101193.56;;;12.67;80.14
14204;BME280;7185;51.854;6.622;2023-03-29T10:29:06;101198.44;;;12.89;79.58
14204;BME280;7185;51.854;6.622;2023-03-29T10:31:38;101191.88;;;12.63;80.51
14204;BME280;7185;51.854;6.622;2023-03-29T10:34:14;101189.81;;;12.81;80.89
14204;BME280;7185;51.854;6.622;2023-03-29T10:36:52;101181.63;;;12.96;80.79
14204;BME280;7185;51.854;6.622;2023-03-29T10:39:27;101171.66;;;13.14;79.96
14204;BME280;7185;51.854;6.622;2023-03-29T10:42:00;101180.97;;;13.32;79.87
14204;BME280;7185;51.854;6.622;2023-03-29T10:44:35;101172.91;;;13.39;79.33
14204;BME280;7185;51.854;6.622;2023-03-29T10:47:11;101161.34;;;13.47;79.40
14204;BME280;7185;51.854;6.622;2023-03-29T10:49:49;101167.34;;;13.10;79.84
14204;BME280;7185;51.854;6.622;2023-03-29T10:52:21;101181.69;;;13.40;78.69
14204;BME280;7185;51.854;6.622;2023-03-29T10:54:53;101176.44;;;13.38;78.14
14204;BME280;7185;51.854;6.622;2023-03-29T10:57:32;101171.25;;;13.34;78.42
14204;BME280;7185;51.854;6.622;2023-03-29T11:00:16;101171.22;;;13.35;80.06
14204;BME280;7185;51.854;6.622;2023-03-29T11:03:06;101162.75;;;13.21;81.39
14204;BME280;7185;51.854;6.622;2023-03-29T11:05:47;101170.44;;;13.32;82.44
14204;BME280;7185;51.854;6.622;2023-03-29T11:08:48;101163.78;;;13.12;83.50
14204;BME280;7185;51.854;6.622;2023-03-29T11:11:35;101165.97;;;13.35;82.36
14204;BME280;7185;51.854;6.622;2023-03-29T11:14:16;101168.06;;;13.18;82.93
14204;BME280;7185;51.854;6.622;2023-03-29T11:17:00;101163.69;;;13.17;83.10
14204;BME280;7185;51.854;6.622;2023-03-29T11:20:03;101162.41;;;13.36;83.12
14204;BME280;7185;51.854;6.622;2023-03-29T11:22:46;101171.09;;;13.43;82.13
14204;BME280;7185;51.854;6.622;2023-03-29T11:25:27;101179.31;;;13.26;82.37
14204;BME280;7185;51.854;6.622;2023-03-29T11:28:07;101167.19;;;13.17;82.06
14204;BME280;7185;51.854;6.622;2023-03-29T11:30:46;101163.84;;;13.53;80.97
14204;BME280;7185;51.854;6.622;2023-03-29T11:33:29;101173.16;;;13.27;81.92
14204;BME280;7185;51.854;6.622;2023-03-29T11:36:10;101163.56;;;13.23;82.47
14204;BME280;7185;51.854;6.622;2023-03-29T11:38:50;101164.56;;;13.16;84.77
14204;BME280;7185;51.854;6.622;2023-03-29T11:41:27;101166.88;;;13.33;84.45
14204;BME280;7185;51.854;6.622;2023-03-29T11:44:11;101171.97;;;13.42;85.99
14204;BME280;7185;51.854;6.622;2023-03-29T11:46:48;101156.94;;;13.49;85.90
14204;BME280;7185;51.854;6.622;2023-03-29T11:49:30;101150.72;;;13.51;85.96
14204;BME280;7185;51.854;6.622;2023-03-29T11:52:11;101141.78;;;13.57;87.02
14204;BME280;7185;51.854;6.622;2023-03-29T11:54:49;101135.06;;;13.44;87.61
14204;BME280;7185;51.854;6.622;2023-03-29T11:57:27;101138.03;;;13.28;87.50
14204;BME280;7185;51.854;6.622;2023-03-29T12:00:02;101136.06;;;13.36;87.67
14204;BME280;7185;51.854;6.622;2023-03-29T12:02:37;101128.91;;;13.45;87.46
14204;BME280;7185;51.854;6.622;2023-03-29T12:05:16;101118.94;;;13.59;87.25
14204;BME280;7185;51.854;6.622;2023-03-29T12:07:54;101113.03;;;13.48;87.70
14204;BME280;7185;51.854;6.622;2023-03-29T12:10:33;101113.97;;;13.45;88.41
14204;BME280;7185;51.854;6.622;2023-03-29T12:13:11;101110.09;;;13.62;88.69
14204;BME280;7185;51.854;6.622;2023-03-29T12:15:49;101106.56;;;13.63;89.10
14204;BME280;7185;51.854;6.622;2023-03-29T12:18:26;101110.56;;;13.42;90.04
14204;BME280;7185;51.854;6.622;2023-03-29T12:21:07;101115.06;;;13.33;89.40
14204;BME280;7185;51.854;6.622;2023-03-29T12:23:42;101099.44;;;13.66;90.84
14204;BME280;7185;51.854;6.622;2023-03-29T12:26:24;101101.78;;;13.79;88.61
14204;BME280;7185;51.854;6.622;2023-03-29T12:29:21;101101.38;;;13.96;87.96
14204;BME280;7185;51.854;6.622;2023-03-29T12:32:14;101104.66;;;14.40;86.10
14204;BME280;7185;51.854;6.622;2023-03-29T12:35:00;101105.06;;;14.59;85.81
14204;BME280;7185;51.854;6.622;2023-03-29T12:37:43;101093.00;;;14.49;84.25
14204;BME280;7185;51.854;6.622;2023-03-29T12:40:17;101096.75;;;14.75;84.23
14204;BME280;7185;51.854;6.622;2023-03-29T12:42:51;101095.25;;;14.97;83.97
14204;BME280;7185;51.854;6.622;2023-03-29T12:45:29;101097.66;;;14.74;83.09
14204;BME280;7185;51.854;6.622;2023-03-29T12:48:02;101102.88;;;14.75;83.68
14204;BME280;7185;51.854;6.622;2023-03-29T12:50:35;101090.91;;;14.95;82.84
14204;BME280;7185;51.854;6.622;2023-03-29T12:53:17;101095.25;;;14.97;82.83
14204;BME280;7185;51.854;6.622;2023-03-29T12:56:07;101092.00;;;15.18;81.65
14204;BME280;7185;51.854;6.622;2023-03-29T12:58:55;101088.97;;;15.32;81.49
14204;BME280;7185;51.854;6.622;2023-03-29T13:01:36;101090.00;;;15.56;79.97
14204;BME280;7185;51.854;6.622;2023-03-29T13:04:16;101085.41;;;15.89;79.47
14204;BME280;7185;51.854;6.622;2023-03-29T13:06:57;101087.63;;;15.75;78.05
14204;BME280;7185;51.854;6.622;2023-03-29T13:09:47;101079.53;;;16.08;76.54
14204;BME280;7185;51.854;6.622;2023-03-29T13:12:23;101082.63;;;15.94;76.39
14204;BME280;7185;51.854;6.622;2023-03-29T13:14:58;101079.94;;;16.22;75.90
14204;BME280;7185;51.854;6.622;2023-03-29T13:17:35;101073.97;;;16.41;76.55
14204;BME280;7185;51.854;6.622;2023-03-29T13:20:34;101078.44;;;16.40;74.14
14204;BME280;7185;51.854;6.622;2023-03-29T13:23:28;101074.38;;;16.55;74.48
14204;BME280;7185;51.854;6.622;2023-03-29T13:26:22;101058.81;;;16.46;73.82
14204;BME280;7185;51.854;6.622;2023-03-29T13:32:10;101065.88;;;16.20;75.28
14204;BME280;7185;51.854;6.622;2023-03-29T13:34:51;101060.31;;;16.03;75.84
14204;BME280;7185;51.854;6.622;2023-03-29T13:37:35;101046.63;;;15.90;75.22
14204;BME280;7185;51.854;6.622;2023-03-29T13:40:27;101050.72;;;15.99;75.51
14204;BME280;7185;51.854;6.622;2023-03-29T13:43:09;101054.56;;;15.90;74.87
14204;BME280;7185;51.854;6.622;2023-03-29T13:45:41;101049.84;;;16.25;75.52
14204;BME280;7185;51.854;6.622;2023-03-29T13:48:21;101037.97;;;16.37;73.41
14204;BME280;7185;51.854;6.622;2023-03-29T13:50:56;101037.53;;;16.49;73.37
14204;BME280;7185;51.854;6.622;2023-03-29T13:53:33;101031.56;;;16.68;73.32